CheckWX is a tool to help pilots better visualize weather data.  It is not intended as a substitute for an official pre-flight weather briefing.

05:03:48 UTC

KBNA TAF
Nashville International Airport
Nashville, Tennessee, USA
KBNA 222324Z 2300/2324 18004KT P6SM -SHRA BKN040 FM230200 18003KT P6SM SCT050 BKN120 TEMPO 2308/2312 4SM BR FM231200 01003KT P6SM BKN040 FM231800 03008KT P6SM VCTS BKN040CB TEMPO 2320/2324 4SM -TSRA OVC030CB

Aug-23@
00:00 UTC

Aug-23 @ 00:00 UTC

Aug-23@
02:00 UTC

Aug-23 @ 02:00 UTC

KBNA 222324Z 2300/2324 18004KT P6SM -SHRA BKN040

Expired

Wind
  • 180° at 4 KTS
Conditions
Light Rain
Cloud Levels
  • Broken at 4,000' AGL

Aug-23@
02:00 UTC

Aug-23 @ 02:00 UTC

Aug-23@
12:00 UTC

Aug-23 @ 12:00 UTC

FM230200 18003KT P6SM SCT050 BKN120

From

From Standard forecast or significant change

Wind
  • 180° at 3 KTS
Cloud Levels
  • Scattered at 5,000' AGL
  • Broken at 12,000' AGL

Aug-23@
08:00 UTC

Aug-23 @ 08:00 UTC

Aug-23@
12:00 UTC

Aug-23 @ 12:00 UTC

TEMPO 2308/2312 4SM BR

Temporary

Temporary Changes expected for less than half the time period

Conditions
Mist

Aug-23@
12:00 UTC

Aug-23 @ 12:00 UTC

Aug-23@
18:00 UTC

Aug-23 @ 18:00 UTC

FM231200 01003KT P6SM BKN040

From

From Standard forecast or significant change

Wind
  • 010° at 3 KTS
Cloud Levels
  • Broken at 4,000' AGL

Aug-23@
18:00 UTC

Aug-23 @ 18:00 UTC

Aug-24@
00:00 UTC

Aug-24 @ 00:00 UTC

FM231800 03008KT P6SM VCTS BKN040CB

From

From Standard forecast or significant change

Wind
  • 030° at 8 KTS
Conditions
Area Thunderstorm
Cloud Levels
  • Broken at 4,000' AGL

Aug-23@
20:00 UTC

Aug-23 @ 20:00 UTC

Aug-24@
00:00 UTC

Aug-24 @ 00:00 UTC

TEMPO 2320/2324 4SM -TSRA OVC030CB

Temporary

Temporary Changes expected for less than half the time period

Conditions
Light Thunderstorm, Light Rain
Cloud Levels
  • Overcast at 3,000' AGL